High Falls, NY (12440)

8:31 PM EDT on September 01, 2015 (GMT -0400)
SUNY Ulster County Community College | | Change Station
CLOSE
Current Station
Personal Weather Station
Location: Stone Ridge, NY
Elevation: 400 ft
Nearby Weather Stations

Elev 400 ft 41.85 °N, 74.13 °W | Updated 1 minute ago

Clear
Clear
75.7 °F
Feels Like 77 °F
N
0.0
Wind Variable Wind from North
Gusts 1.0 mph

Today
High -- | Low -- °F
--% Chance of Precip.
Yesterday
High -- | Low -- °F
Precip. -- in
6:22 AM 7:30 PM
Waning Gibbous, 85% visible
Pressure 30.00 in
Visibility 10.0 miles
Clouds Clear
Heat Index 77 °F
Dew Point 68 °F
Humidity 78%
Rainfall 0.00 in
Snow Depth Not available.
UV 0 out of 12
Pollen 9.30 out of 12
Air Quality Not available.
Flu Activity Not available.
METAR KPOU 012353Z AUTO 00000KT 10SM CLR 24/18 A3001 RMK AO2 SLP159 T02390178 10311 20239 53002
Pressure 30.00 in
Visibility 10.0 miles
Clouds Clear
Heat Index 77 °F
Dew Point 68 °F
Humidity 78%
Rainfall 0.00 in
Snow Depth Not available.
UV 0 out of 12
Pollen 9.30 out of 12
Air Quality Not available.
Flu Activity Not available.
METAR KPOU 012353Z AUTO 00000KT 10SM CLR 24/18 A3001 RMK AO2 SLP159 T02390178 10311 20239 53002

10-Day Weather Forecast

×

Almanac

Astronomy

Sep. 01, 2015 Rise Set
Actual Time
Civil Twilight
Nautical Twilight
Astronomical Twilight
Moon
Length of Visible Light
Length of Day
Tomorrow will be .
, % of the Moon is Illuminated

Today's Extremes

State Highs State Lows

Community

WunderPhotos

Upload Photos

1,851,657 photos uploaded!

WunderBlogs® & News

Nearby

Air Quality

  Air Quality AQ Index Pollutant
Not available.

Snow Depth

Station Depth Elevation

Earthquake Activity

City Distance Mag. Time & Date
Minimum magnitude displayed is 2.5.

Coastal Water Temperatures

Place Temperature

Stations

Nearby Weather Stations

Station Location Temp. Windchill Dew Point Humidity Wind Precip. Elev Updated Type